sensor_id;sensor_type;location;lat;lon;timestamp;temperature;humidity
60717;DHT22;46566;52.700;6.192;2023-04-24T00:00:09;10.30;99.90
60717;DHT22;46566;52.700;6.192;2023-04-24T00:02:36;10.30;99.90
60717;DHT22;46566;52.700;6.192;2023-04-24T00:05:05;10.30;99.90
60717;DHT22;46566;52.700;6.192;2023-04-24T00:07:32;10.30;99.90
60717;DHT22;46566;52.700;6.192;2023-04-24T00:09:58;10.20;99.90
60717;DHT22;46566;52.700;6.192;2023-04-24T00:12:24;10.20;99.90
60717;DHT22;46566;52.700;6.192;2023-04-24T00:14:50;10.20;99.90
60717;DHT22;46566;52.700;6.192;2023-04-24T00:17:16;10.20;99.90
60717;DHT22;46566;52.700;6.192;2023-04-24T00:19:46;10.20;99.90
60717;DHT22;46566;52.700;6.192;2023-04-24T00:22:12;10.20;99.90
60717;DHT22;46566;52.700;6.192;2023-04-24T00:24:39;10.10;99.90
60717;DHT22;46566;52.700;6.192;2023-04-24T00:27:05;10.10;99.90
60717;DHT22;46566;52.700;6.192;2023-04-24T00:29:30;10.10;99.90
60717;DHT22;46566;52.700;6.192;2023-04-24T00:31:56;10.20;99.90
60717;DHT22;46566;52.700;6.192;2023-04-24T00:34:22;10.20;99.90
60717;DHT22;46566;52.700;6.192;2023-04-24T00:36:48;10.20;99.90
60717;DHT22;46566;52.700;6.192;2023-04-24T00:39:19;10.20;99.90
60717;DHT22;46566;52.700;6.192;2023-04-24T00:41:45;10.20;99.90
60717;DHT22;46566;52.700;6.192;2023-04-24T00:44:11;10.20;99.90
60717;DHT22;46566;52.700;6.192;2023-04-24T04:58:21;10.20;99.90
60717;DHT22;46566;52.700;6.192;2023-04-24T05:00:51;9.90;99.90
60717;DHT22;46566;52.700;6.192;2023-04-24T05:03:31;9.80;99.90
60717;DHT22;46566;52.700;6.192;2023-04-24T05:06:05;9.90;99.90
60717;DHT22;46566;52.700;6.192;2023-04-24T05:08:33;9.80;99.90
60717;DHT22;46566;52.700;6.192;2023-04-24T05:10:59;9.90;99.90
60717;DHT22;46566;52.700;6.192;2023-04-24T05:13:27;9.90;99.90
60717;DHT22;46566;52.700;6.192;2023-04-24T05:15:53;9.90;99.90
60717;DHT22;46566;52.700;6.192;2023-04-24T05:18:19;9.80;99.90
60717;DHT22;46566;52.700;6.192;2023-04-24T05:20:45;9.80;99.90
60717;DHT22;46566;52.700;6.192;2023-04-24T05:23:11;9.80;99.90
60717;DHT22;46566;52.700;6.192;2023-04-24T05:25:38;9.80;99.90
60717;DHT22;46566;52.700;6.192;2023-04-24T05:28:34;9.80;99.90
60717;DHT22;46566;52.700;6.192;2023-04-24T05:31:06;9.80;99.90
60717;DHT22;46566;52.700;6.192;2023-04-24T05:33:32;9.80;99.90
60717;DHT22;46566;52.700;6.192;2023-04-24T05:36:22;9.80;99.90
60717;DHT22;46566;52.700;6.192;2023-04-24T05:39:14;9.80;99.90
60717;DHT22;46566;52.700;6.192;2023-04-24T05:41:59;9.80;99.90
60717;DHT22;46566;52.700;6.192;2023-04-24T05:48:08;9.80;99.90
60717;DHT22;46566;52.700;6.192;2023-04-24T05:53:37;9.80;99.90
60717;DHT22;46566;52.700;6.192;2023-04-24T05:56:03;9.80;99.90
60717;DHT22;46566;52.700;6.192;2023-04-24T05:58:55;9.80;99.90
60717;DHT22;46566;52.700;6.192;2023-04-24T06:05:03;9.80;99.90
60717;DHT22;46566;52.700;6.192;2023-04-24T06:07:45;9.80;99.90
60717;DHT22;46566;52.700;6.192;2023-04-24T06:10:11;9.80;99.90
60717;DHT22;46566;52.700;6.192;2023-04-24T06:12:56;9.70;99.90
60717;DHT22;46566;52.700;6.192;2023-04-24T06:22:29;9.70;99.90
60717;DHT22;46566;52.700;6.192;2023-04-24T06:25:21;9.70;99.90
60717;DHT22;46566;52.700;6.192;2023-04-24T06:28:12;9.70;99.90
60717;DHT22;46566;52.700;6.192;2023-04-24T06:30:47;9.70;99.90
60717;DHT22;46566;52.700;6.192;2023-04-24T06:33:13;9.70;99.90
60717;DHT22;46566;52.700;6.192;2023-04-24T06:50:11;9.70;99.90
60717;DHT22;46566;52.700;6.192;2023-04-24T07:01:27;9.60;99.90
60717;DHT22;46566;52.700;6.192;2023-04-24T07:07:35;9.60;99.90
60717;DHT22;46566;52.700;6.192;2023-04-24T07:10:12;9.60;99.90
60717;DHT22;46566;52.700;6.192;2023-04-24T07:12:38;9.50;99.90
60717;DHT22;46566;52.700;6.192;2023-04-24T07:15:20;9.60;99.90
60717;DHT22;46566;52.700;6.192;2023-04-24T07:17:46;9.50;99.90
60717;DHT22;46566;52.700;6.192;2023-04-24T07:20:21;9.50;99.90
60717;DHT22;46566;52.700;6.192;2023-04-24T07:22:47;9.50;99.90
60717;DHT22;46566;52.700;6.192;2023-04-24T07:25:26;9.50;99.90
60717;DHT22;46566;52.700;6.192;2023-04-24T07:27:52;9.50;99.90
60717;DHT22;46566;52.700;6.192;2023-04-24T07:30:29;9.50;99.90
60717;DHT22;46566;52.700;6.192;2023-04-24T07:32:55;9.50;99.90
60717;DHT22;46566;52.700;6.192;2023-04-24T07:35:39;9.50;99.90
60717;DHT22;46566;52.700;6.192;2023-04-24T07:38:30;9.50;99.90
60717;DHT22;46566;52.700;6.192;2023-04-24T07:41:13;9.50;99.90
60717;DHT22;46566;52.700;6.192;2023-04-24T07:43:39;9.50;99.90
60717;DHT22;46566;52.700;6.192;2023-04-24T07:46:31;9.50;99.90
60717;DHT22;46566;52.700;6.192;2023-04-24T07:52:38;9.40;99.90
60717;DHT22;46566;52.700;6.192;2023-04-24T07:55:16;9.40;99.90
60717;DHT22;46566;52.700;6.192;2023-04-24T07:57:42;9.40;99.90
60717;DHT22;46566;52.700;6.192;2023-04-24T08:00:23;9.30;99.90
60717;DHT22;46566;52.700;6.192;2023-04-24T08:03:11;9.30;99.90
60717;DHT22;46566;52.700;6.192;2023-04-24T08:05:38;9.30;99.90
60717;DHT22;46566;52.700;6.192;2023-04-24T08:08:28;9.30;99.90
60717;DHT22;46566;52.700;6.192;2023-04-24T08:11:12;9.20;99.90
60717;DHT22;46566;52.700;6.192;2023-04-24T08:14:03;9.20;99.90
60717;DHT22;46566;52.700;6.192;2023-04-24T08:16:40;9.20;99.90
60717;DHT22;46566;52.700;6.192;2023-04-24T08:19:06;9.10;99.90
60717;DHT22;46566;52.700;6.192;2023-04-24T08:30:56;9.00;99.90
60717;DHT22;46566;52.700;6.192;2023-04-24T08:33:47;9.00;99.90
60717;DHT22;46566;52.700;6.192;2023-04-24T08:36:38;8.90;99.90
60717;DHT22;46566;52.700;6.192;2023-04-24T08:39:22;8.90;99.90
60717;DHT22;46566;52.700;6.192;2023-04-24T09:11:33;9.10;99.90
60717;DHT22;46566;52.700;6.192;2023-04-24T09:17:40;9.20;99.90
60717;DHT22;46566;52.700;6.192;2023-04-24T09:20:21;9.30;99.90
60717;DHT22;46566;52.700;6.192;2023-04-24T09:22:47;9.40;99.90
60717;DHT22;46566;52.700;6.192;2023-04-24T09:25:32;9.40;99.90
60717;DHT22;46566;52.700;6.192;2023-04-24T09:34:05;9.50;99.90
60717;DHT22;46566;52.700;6.192;2023-04-24T09:36:50;9.50;99.90
60717;DHT22;46566;52.700;6.192;2023-04-24T09:42:30;9.50;99.90
60717;DHT22;46566;52.700;6.192;2023-04-24T09:54:19;9.40;99.90
60717;DHT22;46566;52.700;6.192;2023-04-24T09:57:11;9.30;99.90
60717;DHT22;46566;52.700;6.192;2023-04-24T10:03:19;9.10;99.90
60717;DHT22;46566;52.700;6.192;2023-04-24T10:08:49;8.90;99.90
60717;DHT22;46566;52.700;6.192;2023-04-24T10:26:13;9.00;99.90
60717;DHT22;46566;52.700;6.192;2023-04-24T10:29:05;9.00;99.90
60717;DHT22;46566;52.700;6.192;2023-04-24T11:05:16;9.70;99.90
60717;DHT22;46566;52.700;6.192;2023-04-24T11:08:09;9.80;99.90
60717;DHT22;46566;52.700;6.192;2023-04-24T11:11:17;9.80;99.90
60717;DHT22;46566;52.700;6.192;2023-04-24T11:14:08;9.80;99.90
60717;DHT22;46566;52.700;6.192;2023-04-24T11:16:54;9.80;99.90
60717;DHT22;46566;52.700;6.192;2023-04-24T11:19:24;9.80;99.90
60717;DHT22;46566;52.700;6.192;2023-04-24T11:42:51;9.50;99.90
60717;DHT22;46566;52.700;6.192;2023-04-24T11:45:22;9.50;99.90
60717;DHT22;46566;52.700;6.192;2023-04-24T11:57:37;9.40;99.90
60717;DHT22;46566;52.700;6.192;2023-04-24T12:15:28;9.90;99.90
60717;DHT22;46566;52.700;6.192;2023-04-24T12:17:56;9.90;99.90
60717;DHT22;46566;52.700;6.192;2023-04-24T12:20:46;9.90;99.90
60717;DHT22;46566;52.700;6.192;2023-04-24T12:23:37;9.70;99.90
60717;DHT22;46566;52.700;6.192;2023-04-24T12:31:55;9.50;99.90
60717;DHT22;46566;52.700;6.192;2023-04-24T12:34:45;9.40;99.90
60717;DHT22;46566;52.700;6.192;2023-04-24T12:37:41;9.40;99.90
60717;DHT22;46566;52.700;6.192;2023-04-24T12:40:25;9.40;99.90
60717;DHT22;46566;52.700;6.192;2023-04-24T12:43:20;9.40;99.90
60717;DHT22;46566;52.700;6.192;2023-04-24T12:51:41;9.50;99.90
60717;DHT22;46566;52.700;6.192;2023-04-24T14:06:40;9.40;99.90
60717;DHT22;46566;52.700;6.192;2023-04-24T14:12:48;9.40;99.90
60717;DHT22;46566;52.700;6.192;2023-04-24T14:24:08;9.30;99.90
60717;DHT22;46566;52.700;6.192;2023-04-24T14:26:49;9.30;99.90
60717;DHT22;46566;52.700;6.192;2023-04-24T14:29:40;9.30;99.90
60717;DHT22;46566;52.700;6.192;2023-04-24T14:32:31;9.30;99.90
60717;DHT22;46566;52.700;6.192;2023-04-24T14:35:22;9.30;99.90
60717;DHT22;46566;52.700;6.192;2023-04-24T14:38:00;9.40;99.90
60717;DHT22;46566;52.700;6.192;2023-04-24T14:43:44;9.40;99.90
60717;DHT22;46566;52.700;6.192;2023-04-24T15:07:28;9.50;99.90
60717;DHT22;46566;52.700;6.192;2023-04-24T15:10:13;9.50;99.90
60717;DHT22;46566;52.700;6.192;2023-04-24T15:13:04;9.50;99.90
60717;DHT22;46566;52.700;6.192;2023-04-24T15:15:54;9.50;99.90
60717;DHT22;46566;52.700;6.192;2023-04-24T15:18:32;9.50;99.90
60717;DHT22;46566;52.700;6.192;2023-04-24T15:20:58;9.50;99.90
60717;DHT22;46566;52.700;6.192;2023-04-24T15:23:39;9.40;99.90
60717;DHT22;46566;52.700;6.192;2023-04-24T15:26:04;9.40;99.90
60717;DHT22;46566;52.700;6.192;2023-04-24T15:28:42;9.40;99.90
60717;DHT22;46566;52.700;6.192;2023-04-24T15:31:08;9.50;99.90
60717;DHT22;46566;52.700;6.192;2023-04-24T15:33:44;9.50;99.90
60717;DHT22;46566;52.700;6.192;2023-04-24T15:36:10;9.60;99.90
60717;DHT22;46566;52.700;6.192;2023-04-24T15:38:51;9.60;99.90
60717;DHT22;46566;52.700;6.192;2023-04-24T15:41:17;9.70;99.90
60717;DHT22;46566;52.700;6.192;2023-04-24T15:43:54;9.70;99.90
60717;DHT22;46566;52.700;6.192;2023-04-24T15:46:22;9.70;99.90
60717;DHT22;46566;52.700;6.192;2023-04-24T15:55:08;9.40;99.90
60717;DHT22;46566;52.700;6.192;2023-04-24T15:57:34;9.30;99.90
60717;DHT22;46566;52.700;6.192;2023-04-24T16:00:25;9.30;99.90
60717;DHT22;46566;52.700;6.192;2023-04-24T16:06:32;9.30;99.90
60717;DHT22;46566;52.700;6.192;2023-04-24T16:12:03;9.30;99.90
60717;DHT22;46566;52.700;6.192;2023-04-24T16:14:29;9.20;99.90
60717;DHT22;46566;52.700;6.192;2023-04-24T16:17:20;9.10;99.90
60717;DHT22;46566;52.700;6.192;2023-04-24T16:20:11;9.10;99.90
60717;DHT22;46566;52.700;6.192;2023-04-24T16:22:56;9.10;99.90
60717;DHT22;46566;52.700;6.192;2023-04-24T16:31:21;9.30;99.90
60717;DHT22;46566;52.700;6.192;2023-04-24T16:34:13;9.30;99.90
60717;DHT22;46566;52.700;6.192;2023-04-24T16:48:50;9.30;99.90
60717;DHT22;46566;52.700;6.192;2023-04-24T16:51:41;9.30;99.90
60717;DHT22;46566;52.700;6.192;2023-04-24T16:57:48;9.30;99.90
60717;DHT22;46566;52.700;6.192;2023-04-24T17:00:29;9.20;99.90
60717;DHT22;46566;52.700;6.192;2023-04-24T17:02:54;9.20;99.90
60717;DHT22;46566;52.700;6.192;2023-04-24T17:05:35;9.20;99.90
60717;DHT22;46566;52.700;6.192;2023-04-24T17:08:30;9.20;99.90
60717;DHT22;46566;52.700;6.192;2023-04-24T17:16:56;9.20;99.90
60717;DHT22;46566;52.700;6.192;2023-04-24T17:25:30;9.10;99.90
60717;DHT22;46566;52.700;6.192;2023-04-24T17:34:28;9.00;99.90
60717;DHT22;46566;52.700;6.192;2023-04-24T17:40:40;8.90;99.90
60717;DHT22;46566;52.700;6.192;2023-04-24T17:58:41;8.60;99.90
60717;DHT22;46566;52.700;6.192;2023-04-24T18:04:08;8.60;99.90
60717;DHT22;46566;52.700;6.192;2023-04-24T18:06:35;8.60;99.90
60717;DHT22;46566;52.700;6.192;2023-04-24T18:14:57;8.60;99.90
60717;DHT22;46566;52.700;6.192;2023-04-24T18:17:52;8.60;99.90
60717;DHT22;46566;52.700;6.192;2023-04-24T18:21:02;8.60;99.90
60717;DHT22;46566;52.700;6.192;2023-04-24T18:26:52;8.60;99.90
60717;DHT22;46566;52.700;6.192;2023-04-24T18:29:28;8.50;99.90
60717;DHT22;46566;52.700;6.192;2023-04-24T18:31:56;8.50;99.90
60717;DHT22;46566;52.700;6.192;2023-04-24T18:37:17;8.50;99.90
60717;DHT22;46566;52.700;6.192;2023-04-24T18:39:44;8.50;99.90
60717;DHT22;46566;52.700;6.192;2023-04-24T18:42:10;8.50;99.90
60717;DHT22;46566;52.700;6.192;2023-04-24T18:44:39;8.40;99.90
60717;DHT22;46566;52.700;6.192;2023-04-24T18:47:08;8.40;99.90
60717;DHT22;46566;52.700;6.192;2023-04-24T18:49:34;8.40;99.90
60717;DHT22;46566;52.700;6.192;2023-04-24T18:52:02;8.40;99.90
60717;DHT22;46566;52.700;6.192;2023-04-24T18:54:28;8.30;99.90
60717;DHT22;46566;52.700;6.192;2023-04-24T18:56:55;8.30;99.90
60717;DHT22;46566;52.700;6.192;2023-04-24T18:59:21;8.30;99.90
60717;DHT22;46566;52.700;6.192;2023-04-24T19:01:47;8.30;99.90
60717;DHT22;46566;52.700;6.192;2023-04-24T19:04:14;8.30;99.90
60717;DHT22;46566;52.700;6.192;2023-04-24T19:06:40;8.30;99.90
60717;DHT22;46566;52.700;6.192;2023-04-24T19:09:09;8.20;99.90
60717;DHT22;46566;52.700;6.192;2023-04-24T19:11:37;8.30;99.90
60717;DHT22;46566;52.700;6.192;2023-04-24T19:14:05;8.30;99.90
60717;DHT22;46566;52.700;6.192;2023-04-24T19:16:31;8.30;99.90
60717;DHT22;46566;52.700;6.192;2023-04-24T19:18:57;8.30;99.90
60717;DHT22;46566;52.700;6.192;2023-04-24T19:21:23;8.30;99.90
60717;DHT22;46566;52.700;6.192;2023-04-24T19:23:49;8.30;99.90
60717;DHT22;46566;52.700;6.192;2023-04-24T19:26:17;8.30;99.90
60717;DHT22;46566;52.700;6.192;2023-04-24T19:28:42;8.30;99.90
60717;DHT22;46566;52.700;6.192;2023-04-24T19:31:08;8.30;99.90
60717;DHT22;46566;52.700;6.192;2023-04-24T19:33:34;8.30;99.90
60717;DHT22;46566;52.700;6.192;2023-04-24T19:36:00;8.30;99.90
60717;DHT22;46566;52.700;6.192;2023-04-24T19:38:26;8.30;99.90
60717;DHT22;46566;52.700;6.192;2023-04-24T19:40:52;8.40;99.90
60717;DHT22;46566;52.700;6.192;2023-04-24T19:43:18;8.40;99.90
60717;DHT22;46566;52.700;6.192;2023-04-24T19:45:52;8.30;99.90
60717;DHT22;46566;52.700;6.192;2023-04-24T19:48:18;8.40;99.90
60717;DHT22;46566;52.700;6.192;2023-04-24T19:50:44;8.30;99.90
60717;DHT22;46566;52.700;6.192;2023-04-24T19:53:10;8.30;99.90
60717;DHT22;46566;52.700;6.192;2023-04-24T19:55:37;8.30;99.90
60717;DHT22;46566;52.700;6.192;2023-04-24T19:58:03;8.30;99.90
60717;DHT22;46566;52.700;6.192;2023-04-24T20:00:28;8.30;99.90
60717;DHT22;46566;52.700;6.192;2023-04-24T20:02:55;8.20;99.90
60717;DHT22;46566;52.700;6.192;2023-04-24T20:05:20;8.20;99.90
60717;DHT22;46566;52.700;6.192;2023-04-24T20:07:46;8.20;99.90
60717;DHT22;46566;52.700;6.192;2023-04-24T20:10:12;8.20;99.90
60717;DHT22;46566;52.700;6.192;2023-04-24T20:12:37;8.20;99.90
60717;DHT22;46566;52.700;6.192;2023-04-24T20:15:03;8.20;99.90
60717;DHT22;46566;52.700;6.192;2023-04-24T20:17:30;8.20;99.90
60717;DHT22;46566;52.700;6.192;2023-04-24T20:19:55;8.20;99.90
60717;DHT22;46566;52.700;6.192;2023-04-24T20:22:21;8.20;99.90
60717;DHT22;46566;52.700;6.192;2023-04-24T20:24:47;8.20;99.90
60717;DHT22;46566;52.700;6.192;2023-04-24T20:27:15;8.20;99.90
60717;DHT22;46566;52.700;6.192;2023-04-24T20:29:40;8.20;99.90
60717;DHT22;46566;52.700;6.192;2023-04-24T20:32:06;8.20;99.90
60717;DHT22;46566;52.700;6.192;2023-04-24T20:34:32;8.20;99.90
60717;DHT22;46566;52.700;6.192;2023-04-24T20:36:58;8.10;99.90
60717;DHT22;46566;52.700;6.192;2023-04-24T20:39:24;8.10;99.90
60717;DHT22;46566;52.700;6.192;2023-04-24T20:41:50;8.10;99.90
60717;DHT22;46566;52.700;6.192;2023-04-24T20:44:16;8.10;99.90
60717;DHT22;46566;52.700;6.192;2023-04-24T20:46:42;8.00;99.90
60717;DHT22;46566;52.700;6.192;2023-04-24T20:49:08;8.00;99.90
60717;DHT22;46566;52.700;6.192;2023-04-24T20:51:33;8.00;99.90
60717;DHT22;46566;52.700;6.192;2023-04-24T20:53:59;8.00;99.90
60717;DHT22;46566;52.700;6.192;2023-04-24T20:56:25;7.90;99.90
60717;DHT22;46566;52.700;6.192;2023-04-24T20:58:51;7.90;99.90
60717;DHT22;46566;52.700;6.192;2023-04-24T21:01:18;7.90;99.90
60717;DHT22;46566;52.700;6.192;2023-04-24T21:03:44;7.90;99.90
60717;DHT22;46566;52.700;6.192;2023-04-24T21:06:10;7.90;99.90
60717;DHT22;46566;52.700;6.192;2023-04-24T21:08:36;7.80;99.90
60717;DHT22;46566;52.700;6.192;2023-04-24T21:11:03;7.80;99.90
60717;DHT22;46566;52.700;6.192;2023-04-24T21:13:28;7.80;99.90
60717;DHT22;46566;52.700;6.192;2023-04-24T21:15:54;7.80;99.90
60717;DHT22;46566;52.700;6.192;2023-04-24T21:18:20;7.80;99.90
60717;DHT22;46566;52.700;6.192;2023-04-24T21:20:46;7.80;99.90
60717;DHT22;46566;52.700;6.192;2023-04-24T21:23:12;7.80;99.90
60717;DHT22;46566;52.700;6.192;2023-04-24T21:25:37;7.80;99.90
60717;DHT22;46566;52.700;6.192;2023-04-24T21:28:03;7.80;99.90
60717;DHT22;46566;52.700;6.192;2023-04-24T21:30:30;7.80;99.90
60717;DHT22;46566;52.700;6.192;2023-04-24T21:32:56;7.80;99.90
60717;DHT22;46566;52.700;6.192;2023-04-24T21:35:21;7.70;99.90
60717;DHT22;46566;52.700;6.192;2023-04-24T21:37:47;7.70;99.90
60717;DHT22;46566;52.700;6.192;2023-04-24T21:40:13;7.70;99.90
60717;DHT22;46566;52.700;6.192;2023-04-24T21:42:40;7.70;99.90
60717;DHT22;46566;52.700;6.192;2023-04-24T21:45:06;7.70;99.90
60717;DHT22;46566;52.700;6.192;2023-04-24T21:47:32;7.70;99.90
60717;DHT22;46566;52.700;6.192;2023-04-24T21:49:58;7.70;99.90
60717;DHT22;46566;52.700;6.192;2023-04-24T21:52:24;7.70;99.90
60717;DHT22;46566;52.700;6.192;2023-04-24T21:54:50;7.70;99.90
60717;DHT22;46566;52.700;6.192;2023-04-24T21:57:15;7.60;99.90
60717;DHT22;46566;52.700;6.192;2023-04-24T21:59:41;7.60;99.90
60717;DHT22;46566;52.700;6.192;2023-04-24T22:02:07;7.50;99.90
60717;DHT22;46566;52.700;6.192;2023-04-24T22:04:33;7.50;99.90
60717;DHT22;46566;52.700;6.192;2023-04-24T22:06:58;7.50;99.90
60717;DHT22;46566;52.700;6.192;2023-04-24T22:09:24;7.50;99.90
60717;DHT22;46566;52.700;6.192;2023-04-24T22:11:55;7.50;99.90
60717;DHT22;46566;52.700;6.192;2023-04-24T22:14:22;7.40;99.90
60717;DHT22;46566;52.700;6.192;2023-04-24T22:16:47;7.40;99.90
60717;DHT22;46566;52.700;6.192;2023-04-24T22:19:15;7.40;99.90
60717;DHT22;46566;52.700;6.192;2023-04-24T22:21:40;7.40;99.90
60717;DHT22;46566;52.700;6.192;2023-04-24T22:24:07;7.40;99.90
60717;DHT22;46566;52.700;6.192;2023-04-24T22:26:33;7.40;99.90
60717;DHT22;46566;52.700;6.192;2023-04-24T22:29:00;7.40;99.90
60717;DHT22;46566;52.700;6.192;2023-04-24T22:31:25;7.30;99.90
60717;DHT22;46566;52.700;6.192;2023-04-24T22:33:51;7.40;99.90
60717;DHT22;46566;52.700;6.192;2023-04-24T22:36:17;7.30;99.90
60717;DHT22;46566;52.700;6.192;2023-04-24T22:38:43;7.30;99.90
60717;DHT22;46566;52.700;6.192;2023-04-24T22:41:09;7.30;99.90
60717;DHT22;46566;52.700;6.192;2023-04-24T22:43:35;7.30;99.90
60717;DHT22;46566;52.700;6.192;2023-04-24T22:46:00;7.30;99.90
60717;DHT22;46566;52.700;6.192;2023-04-24T22:48:26;7.30;99.90
60717;DHT22;46566;52.700;6.192;2023-04-24T22:50:52;7.20;99.90
60717;DHT22;46566;52.700;6.192;2023-04-24T22:53:18;7.20;99.90
60717;DHT22;46566;52.700;6.192;2023-04-24T22:55:44;7.20;99.90
60717;DHT22;46566;52.700;6.192;2023-04-24T22:58:09;7.20;99.90
60717;DHT22;46566;52.700;6.192;2023-04-24T23:00:35;7.10;99.90
60717;DHT22;46566;52.700;6.192;2023-04-24T23:03:01;7.10;99.90
60717;DHT22;46566;52.700;6.192;2023-04-24T23:05:28;7.10;99.90
60717;DHT22;46566;52.700;6.192;2023-04-24T23:07:54;7.00;99.90
60717;DHT22;46566;52.700;6.192;2023-04-24T23:10:20;7.00;99.90
60717;DHT22;46566;52.700;6.192;2023-04-24T23:12:46;7.00;99.90
60717;DHT22;46566;52.700;6.192;2023-04-24T23:15:11;7.00;99.90
60717;DHT22;46566;52.700;6.192;2023-04-24T23:17:37;7.00;99.90
60717;DHT22;46566;52.700;6.192;2023-04-24T23:20:03;7.00;99.90
60717;DHT22;46566;52.700;6.192;2023-04-24T23:22:29;6.90;99.90
60717;DHT22;46566;52.700;6.192;2023-04-24T23:24:55;6.90;99.90
60717;DHT22;46566;52.700;6.192;2023-04-24T23:27:21;6.80;99.90
60717;DHT22;46566;52.700;6.192;2023-04-24T23:29:47;6.80;99.90
60717;DHT22;46566;52.700;6.192;2023-04-24T23:32:13;6.80;99.90
60717;DHT22;46566;52.700;6.192;2023-04-24T23:34:39;6.70;99.90
60717;DHT22;46566;52.700;6.192;2023-04-24T23:37:06;6.70;99.90
60717;DHT22;46566;52.700;6.192;2023-04-24T23:39:31;6.60;99.90
60717;DHT22;46566;52.700;6.192;2023-04-24T23:41:57;6.60;99.90
60717;DHT22;46566;52.700;6.192;2023-04-24T23:44:27;6.60;99.90
60717;DHT22;46566;52.700;6.192;2023-04-24T23:46:53;6.50;99.90
60717;DHT22;46566;52.700;6.192;2023-04-24T23:49:19;6.50;99.90
60717;DHT22;46566;52.700;6.192;2023-04-24T23:51:44;6.40;99.90
60717;DHT22;46566;52.700;6.192;2023-04-24T23:54:10;6.40;99.90
60717;DHT22;46566;52.700;6.192;2023-04-24T23:56:37;6.30;99.90
60717;DHT22;46566;52.700;6.192;2023-04-24T23:59:03;6.30;99.90
